Flight Track Log - Related Links

Times and Time Zones

All times are in EDT time to prevent confusion due to time zone crossing. See the TRS1193 flight status page for this flight to view local times or setup timezone preferences in your user account.

Time Position Orientation Groundspeed Altitude Reporting Facility
EDT Latitude Longitude Course Direction KTS MPH feet Rate Location/Type
Thu 09:35:45 PM 33.6333 -84.4667 244° Southwest 190 219 2,500  Level Atlanta TRACON
Thu 09:36:45 PM 33.6000 -84.5500 209° Southwest 249 287 3,800 1,900 Climbing Atlanta TRACON
Thu 09:37:45 PM 33.5500 -84.5833 180° South 264 304 6,300 2,550 Climbing Atlanta TRACON
Thu 09:38:45 PM 33.4833 -84.5833 105° East 276 318 8,900 2,201 Climbing Atlanta TRACON
Thu 09:40:04 PM 33.4553 -84.4619 88° East 314 361 11,400 2,115 Climbing Atlanta Center
Thu 09:41:04 PM 33.4578 -84.3500 56° Northeast 334 384 13,800 1,750 Climbing Atlanta Center
Thu 09:42:04 PM 33.5186 -84.2406 47° Northeast 329 379 14,900 1,650 Climbing Atlanta Center
Thu 09:43:04 PM 33.5958 -84.1411 46° Northeast 375 432 17,100 1,800 Climbing Atlanta Center
Thu 09:44:04 PM 33.6772 -84.0414 47° Northeast 400 460 18,500 1,700 Climbing Atlanta Center
Thu 09:45:04 PM 33.7586 -83.9364 47° Northeast 413 475 20,500 1,850 Climbing Atlanta Center
Thu 09:46:04 PM 33.8400 -83.8311 46° Northeast 418 481 22,200 1,800 Climbing Atlanta Center
Thu 09:47:04 PM 33.9253 -83.7233 53° Northeast 430 495 24,100 1,550 Climbing Atlanta Center
Thu 09:48:04 PM 34.0000 -83.6028 52° Northeast 436 502 25,300 1,200 Climbing Atlanta Center
Thu 09:49:04 PM 34.0811 -83.4794 54° Northeast 453 521 26,500 1,250 Climbing Atlanta Center
Thu 09:50:04 PM 34.1597 -83.3508 53° Northeast 471 542 27,800 1,300 Climbing Atlanta Center
Thu 09:51:04 PM 34.2403 -83.2222 52° Northeast 476 548 29,100 1,400 Climbing Atlanta Center
Thu 09:52:04 PM 34.3228 -83.0956 55° Northeast 483 556 30,600 1,537 Climbing Atlanta Center
Thu 09:53:05 PM 34.3989 -82.9614 53° Northeast 483 556 32,200 1,200 Climbing Atlanta Center
Thu 09:54:04 PM 34.4769 -82.8342 52° Northeast 478 550 33,000 403 Climbing Atlanta Center
Thu 09:55:04 PM 34.5592 -82.7044 53° Northeast 478 550 33,000  Level Atlanta Center
Thu 09:56:04 PM 34.6369 -82.5769 53° Northeast 472 543 33,000  Level Atlanta Center
Thu 09:57:04 PM 34.7147 -82.4519 53° Northeast 472 543 33,000  Level Atlanta Center
Thu 09:58:04 PM 34.7925 -82.3239 54° Northeast 472 543 33,000  Level Atlanta Center
Thu 09:59:04 PM 34.8697 -82.1931 51° Northeast 467 537 33,000  Level Atlanta Center
Thu 10:00:04 PM 34.9492 -82.0722 54° Northeast 467 537 33,000  Level Atlanta Center
Thu 10:01:04 PM 35.0244 -81.9436 57° Northeast 467 537 33,000  Level Atlanta Center
Thu 10:02:04 PM 35.0950 -81.8100 57° Northeast 467 537 33,000  Level Atlanta Center
Thu 10:03:04 PM 35.1675 -81.6733 57° Northeast 472 543 33,000  Level Atlanta Center
Thu 10:04:04 PM 35.2381 -81.5417 57° Northeast 467 537 33,000  Level Atlanta Center
Thu 10:05:04 PM 35.3103 -81.4044 58° Northeast 472 543 33,000  Level Atlanta Center
Thu 10:06:04 PM 35.3803 -81.2647 57° Northeast 472 543 33,000  Level Atlanta Center
Thu 10:07:04 PM 35.4522 -81.1272 57° Northeast 477 549 33,000  Level Atlanta Center
Thu 10:08:04 PM 35.5258 -80.9869 56° Northeast 483 556 33,000  Level Atlanta Center
Thu 10:09:04 PM 35.5978 -80.8539 58° Northeast 478 550 33,000  Level Atlanta Center
Thu 10:11:26 PM 35.7619 -80.5297 57° Northeast 482 555 33,000  Level Washington Center
Thu 10:12:27 PM 35.8344 -80.3908 57° Northeast 482 555 33,000  Level Washington Center
Thu 10:13:27 PM 35.9067 -80.2517 58° Northeast 475 547 33,000  Level Washington Center
Thu 10:14:25 PM 35.9678 -80.1294 57° Northeast 475 547 33,000  Level Washington Center
Thu 10:15:26 PM 36.0442 -79.9822 55° Northeast 470 541 33,000  Level Washington Center
Thu 10:16:26 PM 36.1178 -79.8500 55° Northeast 470 541 33,000  Level Washington Center
Thu 10:17:27 PM 36.1933 -79.7178 55° Northeast 470 541 33,000 -454 Level Washington Center
Thu 10:18:25 PM 36.2600 -79.5975 55° Northeast 470 541 32,100 -1,068 Descending Washington Center
Thu 10:19:25 PM 36.3422 -79.4522 57° Northeast 475 547 30,900 -1,190 Descending Washington Center
Thu 10:20:26 PM 36.4067 -79.3289 54° Northeast 475 547 29,700 -1,279 Descending Washington Center
Thu 10:21:27 PM 36.4836 -79.1983 54° Northeast 469 540 28,300 -1,462 Descending Washington Center
Thu 10:22:25 PM 36.5561 -79.0725 55° Northeast 453 521 26,800 -1,462 Descending Washington Center
Thu 10:23:26 PM 36.6267 -78.9461 56° Northeast 446 513 25,400 -885 Descending Washington Center
Thu 10:24:27 PM 36.6992 -78.8119 56° Northeast 432 497 25,000 -198 Descending Washington Center
Thu 10:25:27 PM 36.7583 -78.7003 55° Northeast 432 497 25,000  Level Washington Center
Thu 10:26:25 PM 36.8261 -78.5786 43° Northeast 432 497 25,000  Level Washington Center
Thu 10:27:27 PM 36.9228 -78.4653 39° Northeast 426 490 25,000 -400 Level Washington Center
Thu 10:28:25 PM 37.0169 -78.3700 40° Northeast 427 491 24,200 -1,160 Descending Washington Center
Thu 10:29:26 PM 37.1067 -78.2742 40° Northeast 427 491 22,700 -1,091 Descending Washington Center
Thu 10:30:26 PM 37.1964 -78.1783 40° Northeast 421 484 22,000 -350 Descending Washington Center
Thu 10:31:26 PM 37.2817 -78.0897 40° Northeast 408 470 22,000  Level Washington Center
Thu 10:32:25 PM 37.3711 -77.9961 40° Northeast 408 470 22,000 -403 Level Washington Center
Thu 10:33:25 PM 37.4586 -77.9019 39° Northeast 408 470 21,200 -1,736 Descending Washington Center
Thu 10:34:26 PM 37.5458 -77.8131 41° Northeast 408 470 18,500 -2,400 Descending Washington Center
Thu 10:35:25 PM 37.6244 -77.7261 40° Northeast 403 464 16,400 -1,240 Descending Washington Center
Thu 10:36:27 PM 37.7031 -77.6417 39° Northeast 378 435 16,000 -793 Descending Washington Center
Thu 10:37:26 PM 37.7797 -77.5625 40° Northeast 366 421 14,800 -1,815 Descending Washington Center
Thu 10:38:26 PM 37.8517 -77.4853 12° North 351 404 12,400 -2,400 Descending Washington Center
Thu 10:39:26 PM 37.9417 -77.4611 North 318 366 10,000 -1,180 Descending Washington Center
Thu 10:40:28 PM 38.0400 -77.4531 North 328 377 10,000  Level Washington Center
Thu 10:41:25 PM 38.1381 -77.4450 North 341 392 10,000  Level Washington Center
Thu 10:42:26 PM 38.2239 -77.4314 North 333 383 10,000  Level Washington Center
Thu 10:43:25 PM 38.3033 -77.4172 North 305 351 10,000 -353 Level Washington Center
Thu 10:44:25 PM 38.3828 -77.4033 North 291 335 9,300 -1,180 Descending Washington Center
Thu 10:45:27 PM 38.4622 -77.3894 10° North 285 328 7,600 -1,664 Descending Washington Center
Thu 10:46:24 PM 38.5394 -77.3728 North 280 322 6,000 -1,424 Descending Washington Center
Thu 10:47:25 PM 38.6211 -77.3639 North 280 322 4,800 -780 Descending Washington Center
Thu 10:48:27 PM 38.6981 -77.3606 360° North 280 322 4,400 -400 Descending Washington Center
Thu 10:49:25 PM 38.7775 -77.3597 North 280 322 4,000 -182 Descending Washington Center
Thu 10:50:39 PM 38.8833 -77.3500 360° North 282 325 4,000 -465 Level Potomac TRACON
Thu 10:51:34 PM 38.9500 -77.3500 360° North 269 310 3,000 -574 Descending Potomac TRACON
Thu 10:52:34 PM 39.0167 -77.3500 288° West 243 280 2,900 -550 Descending Potomac TRACON
Thu 10:53:34 PM 39.0333 -77.4167 195° South 187 215 1,900 -952 Descending Potomac TRACON
Thu 10:54:40 PM 38.9833 -77.4333 195° South 146 168 900 -909 Descending Potomac TRACON

Login

Don't have an account? Register now (free) for customized features, flight alerts, and more!